createdAt,value
2022-08-05T00:00:18.762Z,86.05
2022-08-05T00:01:20.543Z,86.35
2022-08-05T00:02:18.625Z,86.59
2022-08-05T00:03:17.557Z,86.79
2022-08-05T00:04:17.611Z,88.39
2022-08-05T00:06:01.698Z,88.69
2022-08-05T00:06:27.780Z,88.89
2022-08-05T00:07:27.093Z,88.99
2022-08-05T00:08:20.052Z,89.29
2022-08-05T00:09:19.748Z,89.69
2022-08-05T00:10:17.484Z,88.79
2022-08-05T00:11:20.749Z,88.69
2022-08-05T00:12:18.487Z,88.69
2022-08-05T00:13:18.596Z,88.69
2022-08-05T00:14:17.465Z,88.69
2022-08-05T00:15:55.432Z,89.09
2022-08-05T00:16:18.432Z,89.59
2022-08-05T00:17:18.625Z,89.99
2022-08-05T00:18:21.582Z,90.33
2022-08-05T00:19:18.474Z,90.44
2022-08-05T00:20:20.428Z,90.94
2022-08-05T00:21:17.307Z,91.13
2022-08-05T00:22:17.840Z,91.13
2022-08-05T00:23:17.306Z,91.13
2022-08-05T00:24:24.125Z,90.94
2022-08-05T00:25:18.165Z,91.03
2022-08-05T00:26:17.197Z,90.94
2022-08-05T00:27:17.227Z,91.13
2022-08-05T00:28:29.500Z,91.33
2022-08-05T00:29:18.198Z,91.13
2022-08-05T00:30:17.259Z,91.44
2022-08-05T00:31:53.427Z,91.63
2022-08-05T00:32:18.381Z,91.67
2022-08-05T00:34:55.262Z,91.38
2022-08-05T00:34:55.494Z,91.58
2022-08-05T00:35:20.213Z,91.38
2022-08-05T00:37:11.419Z,91.28
2022-08-05T00:37:18.732Z,91.17
2022-08-05T00:38:17.630Z,91.28
2022-08-05T00:39:18.734Z,91.38
2022-08-05T00:40:26.672Z,91.28
2022-08-05T00:41:18.714Z,91.28
2022-08-05T00:42:31.807Z,91.17
2022-08-05T00:43:18.023Z,90.98
2022-08-05T00:44:17.030Z,90.88
2022-08-05T00:45:17.046Z,90.88
2022-08-05T00:46:18.056Z,90.88
2022-08-05T00:47:17.923Z,91.17
2022-08-05T00:48:16.917Z,91.28
2022-08-05T00:49:16.951Z,91.38
2022-08-05T00:50:16.848Z,91.38
2022-08-05T00:51:51.954Z,91.38
2022-08-05T00:52:17.842Z,91.17
2022-08-05T00:53:44.915Z,90.98
2022-08-05T00:54:17.876Z,91.17
2022-08-05T00:55:16.812Z,91.28
2022-08-05T00:56:17.257Z,91.38
2022-08-05T00:57:17.773Z,91.17
2022-08-05T00:58:16.784Z,91.08
2022-08-05T00:59:16.748Z,91.08
2022-08-05T01:00:17.076Z,91.08
2022-08-05T01:01:24.820Z,90.98
2022-08-05T01:02:17.751Z,91.17
2022-08-05T01:03:23.012Z,91.28
2022-08-05T01:04:20.400Z,91.38
2022-08-05T01:05:17.754Z,91.52
2022-08-05T01:06:16.746Z,91.42
2022-08-05T01:07:17.944Z,91.52
2022-08-05T01:08:41.504Z,91.82
2022-08-05T01:09:19.978Z,91.72
2022-08-05T01:10:16.743Z,91.92
2022-08-05T01:11:21.798Z,91.92
2022-08-05T01:12:18.525Z,92.02
2022-08-05T01:13:22.315Z,92.22
2022-08-05T01:14:17.916Z,92.42
2022-08-05T01:15:35.421Z,92.42
2022-08-05T01:16:21.083Z,92.42
2022-08-05T01:17:17.993Z,92.02
2022-08-05T01:18:16.516Z,91.82
2022-08-05T01:19:16.536Z,91.22
2022-08-05T01:20:17.638Z,90.92
2022-08-05T01:21:22.659Z,90.72
2022-08-05T01:22:18.842Z,90.52
2022-08-05T01:23:23.467Z,90.42
2022-08-05T01:24:17.857Z,90.32
2022-08-05T01:25:16.858Z,90.22
2022-08-05T01:26:16.409Z,90.62
2022-08-05T01:27:19.515Z,90.92
2022-08-05T01:28:17.528Z,91.02
2022-08-05T01:29:16.536Z,91.32
2022-08-05T01:30:18.735Z,91.52
2022-08-05T01:31:16.585Z,91.66
2022-08-05T01:32:18.600Z,91.97
2022-08-05T01:33:19.617Z,92.36
2022-08-05T01:34:16.631Z,92.77
2022-08-05T01:35:52.107Z,92.86
2022-08-05T01:36:17.305Z,92.97
2022-08-05T01:37:18.072Z,93.37
2022-08-05T01:38:27.555Z,93.57
2022-08-05T01:39:46.572Z,93.71
2022-08-05T01:40:17.933Z,93.81
2022-08-05T01:41:16.310Z,93.81
2022-08-05T01:42:16.346Z,93.81
2022-08-05T01:43:22.402Z,93.71
2022-08-05T01:44:17.403Z,93.67
2022-08-05T01:45:16.434Z,93.57
2022-08-05T01:46:42.467Z,93.57
2022-08-05T01:47:17.261Z,93.47
2022-08-05T01:48:16.273Z,93.57
2022-08-05T01:49:24.011Z,93.47
2022-08-05T01:50:17.573Z,93.47
2022-08-05T01:51:16.408Z,93.57
2022-08-05T01:52:17.919Z,93.67
2022-08-05T01:53:16.472Z,93.57
2022-08-05T01:54:17.971Z,93.57
2022-08-05T01:55:16.039Z,93.57
2022-08-05T01:58:10.550Z,93.27
2022-08-05T01:58:11.867Z,93.37
2022-08-05T01:58:17.231Z,93.07
2022-08-05T01:59:16.195Z,92.97
2022-08-05T02:00:16.216Z,92.86
2022-08-05T02:01:23.255Z,92.67
2022-08-05T02:02:17.366Z,92.52
2022-08-05T02:03:24.166Z,92.32
2022-08-05T02:04:17.397Z,92.22
2022-08-05T02:05:16.442Z,92.22
2022-08-05T02:06:33.829Z,91.92
2022-08-05T02:07:21.922Z,91.72
2022-08-05T02:08:30.664Z,91.52
2022-08-05T02:09:17.042Z,91.52
2022-08-05T02:10:17.272Z,91.62
2022-08-05T02:11:16.112Z,91.77
2022-08-05T02:12:17.123Z,91.77
2022-08-05T02:13:16.879Z,92.27
2022-08-05T02:14:16.976Z,92.57
2022-08-05T02:15:19.689Z,92.86
2022-08-05T02:16:16.444Z,93.21
2022-08-05T02:17:17.004Z,93.41
2022-08-05T02:18:32.146Z,93.41
2022-08-05T02:19:17.267Z,93.51
2022-08-05T02:20:16.289Z,93.51
2022-08-05T02:21:15.710Z,93.51
2022-08-05T02:22:17.424Z,93.62
2022-08-05T02:23:16.696Z,93.62
2022-08-05T02:24:17.830Z,93.62
2022-08-05T02:25:15.721Z,93.71
2022-08-05T02:26:15.705Z,94.01
2022-08-05T02:27:15.731Z,94.21
2022-08-05T02:28:15.801Z,94.51
2022-08-05T02:29:21.646Z,94.71
2022-08-05T02:30:16.794Z,95.06
2022-08-05T02:31:15.823Z,95.36
2022-08-05T02:32:23.838Z,95.66
2022-08-05T02:33:16.566Z,95.97
2022-08-05T02:34:16.572Z,96.17
2022-08-05T02:35:19.209Z,96.21
2022-08-05T02:36:16.467Z,96.21
2022-08-05T02:37:16.488Z,96.41
2022-08-05T02:38:19.533Z,95.91
2022-08-05T02:39:15.525Z,95.51
2022-08-05T02:40:15.664Z,95.31
2022-08-05T02:41:17.890Z,94.81
2022-08-05T02:42:26.095Z,94.45
2022-08-05T02:43:16.426Z,92.84
2022-08-05T02:44:15.396Z,92.14
2022-08-05T02:45:15.411Z,92.34
2022-08-05T02:46:16.364Z,92.08
2022-08-05T02:47:15.507Z,91.88
2022-08-05T02:48:15.486Z,92.38
2022-08-05T02:49:15.502Z,92.08
2022-08-05T02:50:18.089Z,92.38
2022-08-05T02:51:15.548Z,92.38
2022-08-05T02:52:25.882Z,92.29
2022-08-05T02:53:19.331Z,91.93
2022-08-05T02:54:36.373Z,92.23
2022-08-05T02:55:17.568Z,92.43
2022-08-05T02:56:18.895Z,92.43
2022-08-05T02:58:12.160Z,92.73
2022-08-05T02:58:16.316Z,92.33
2022-08-05T02:59:15.317Z,92.33
2022-08-05T03:00:15.319Z,92.13
2022-08-05T03:01:15.464Z,92.13
2022-08-05T03:02:15.363Z,92.23
2022-08-05T03:03:15.361Z,92.33
2022-08-05T03:04:15.803Z,92.37
2022-08-05T03:05:15.179Z,92.27
2022-08-05T03:06:55.040Z,92.47
2022-08-05T03:07:17.616Z,92.47
2022-08-05T03:08:16.672Z,92.68
2022-08-05T03:09:26.985Z,92.68
2022-08-05T03:10:24.343Z,92.37
2022-08-05T03:11:55.742Z,92.68
2022-08-05T03:12:16.398Z,92.57
2022-08-05T03:13:16.786Z,92.47
2022-08-05T03:14:15.003Z,92.57
2022-08-05T03:15:15.030Z,92.77
2022-08-05T03:16:15.678Z,92.68
2022-08-05T03:17:15.091Z,92.57
2022-08-05T03:18:17.316Z,92.77
2022-08-05T03:19:29.474Z,93.08
2022-08-05T03:20:16.142Z,93.28
2022-08-05T03:21:15.039Z,93.42
2022-08-05T03:22:16.225Z,93.93
2022-08-05T03:23:15.171Z,94.13
2022-08-05T03:24:15.193Z,94.02
2022-08-05T03:25:32.933Z,94.13
2022-08-05T03:26:32.093Z,94.43
2022-08-05T03:27:16.308Z,94.23
2022-08-05T03:28:18.748Z,94.33
2022-08-05T03:29:17.364Z,94.53
2022-08-05T03:30:15.389Z,94.73
2022-08-05T03:31:25.874Z,95.03
2022-08-05T03:32:16.510Z,95.03
2022-08-05T03:33:15.527Z,95.33
2022-08-05T03:34:15.561Z,95.53
2022-08-05T03:35:15.604Z,95.43
2022-08-05T03:36:15.620Z,95.33
2022-08-05T03:37:14.644Z,94.93
2022-08-05T03:38:14.756Z,94.93
2022-08-05T03:39:20.085Z,94.93
2022-08-05T03:40:24.043Z,94.93
2022-08-05T03:41:15.794Z,95.13
2022-08-05T03:42:14.813Z,95.23
2022-08-05T03:43:59.083Z,95.43
2022-08-05T03:44:19.919Z,95.53
2022-08-05T03:45:22.762Z,95.53
2022-08-05T03:46:15.945Z,95.73
2022-08-05T03:47:15.067Z,95.94
2022-08-05T03:48:15.023Z,96.08
2022-08-05T03:49:16.070Z,96.48
2022-08-05T03:50:15.063Z,96.59
2022-08-05T03:52:36.835Z,96.98
2022-08-05T03:52:48.554Z,96.69
2022-08-05T03:55:07.166Z,97.09
2022-08-05T03:55:53.787Z,97.29
2022-08-05T03:56:05.579Z,97.39
2022-08-05T03:56:33.107Z,97.39
2022-08-05T03:57:18.078Z,97.49
2022-08-05T03:58:14.302Z,97.69
2022-08-05T03:59:14.351Z,97.69
2022-08-05T04:00:15.778Z,97.69
2022-08-05T04:01:14.492Z,97.49
2022-08-05T04:02:15.013Z,97.69
2022-08-05T04:03:14.856Z,97.69
2022-08-05T04:04:16.827Z,97.89
2022-08-05T04:05:15.679Z,97.89
2022-08-05T04:06:14.723Z,97.69
2022-08-05T04:07:15.773Z,97.59
2022-08-05T04:08:35.219Z,97.59
2022-08-05T04:09:15.936Z,97.79
2022-08-05T04:10:17.595Z,97.89
2022-08-05T04:11:15.023Z,97.99
2022-08-05T04:12:23.668Z,97.99
2022-08-05T04:13:15.102Z,97.99
2022-08-05T04:14:17.784Z,98.10
2022-08-05T04:15:15.466Z,98.10
2022-08-05T04:16:14.506Z,98.10
2022-08-05T04:17:14.330Z,98.19
2022-08-05T04:18:22.396Z,98.39
2022-08-05T04:19:15.384Z,98.50
2022-08-05T04:20:14.423Z,98.60
2022-08-05T04:22:05.136Z,98.60
2022-08-05T04:22:15.453Z,98.70
2022-08-05T04:23:16.106Z,98.70
2022-08-05T04:24:19.489Z,98.90
2022-08-05T04:25:15.768Z,99.00
2022-08-05T04:26:14.574Z,99.10
2022-08-05T04:27:15.190Z,99.30
2022-08-05T04:28:14.934Z,99.30
2022-08-05T04:29:14.670Z,99.40
2022-08-05T04:30:15.668Z,99.40
2022-08-05T04:31:14.932Z,99.51
2022-08-05T04:32:14.774Z,99.51
2022-08-05T04:33:15.805Z,99.60
2022-08-05T04:34:31.189Z,99.60
2022-08-05T04:35:19.314Z,99.60
2022-08-05T04:36:38.596Z,99.60
2022-08-05T04:37:15.951Z,99.71
2022-08-05T04:38:15.562Z,99.71
2022-08-05T04:39:15.056Z,99.80
2022-08-05T04:40:14.042Z,99.90
2022-08-05T04:41:15.035Z,99.99
2022-08-05T04:42:15.008Z,99.99
2022-08-05T04:43:16.718Z,99.99
2022-08-05T04:44:14.139Z,99.99
2022-08-05T04:45:22.892Z,99.99
2022-08-05T04:46:28.363Z,99.99
2022-08-05T04:47:20.083Z,99.99
2022-08-05T04:48:18.625Z,99.99
2022-08-05T04:49:15.374Z,99.99
2022-08-05T04:50:14.415Z,99.99
2022-08-05T04:51:15.460Z,99.99
2022-08-05T04:52:14.507Z,99.99
2022-08-05T04:53:14.546Z,99.99
2022-08-05T04:54:14.686Z,99.99
2022-08-05T04:55:14.770Z,99.99
2022-08-05T04:56:33.446Z,99.99
2022-08-05T04:57:14.618Z,99.99
2022-08-05T04:58:13.640Z,99.99
2022-08-05T04:59:24.159Z,99.99
2022-08-05T05:00:14.689Z,99.99
2022-08-05T05:01:13.768Z,99.99
2022-08-05T05:02:37.540Z,99.99
2022-08-05T05:03:14.791Z,99.99
2022-08-05T05:04:14.769Z,99.99
2022-08-05T05:05:16.919Z,99.99
2022-08-05T05:06:39.617Z,99.99
2022-08-05T05:07:20.767Z,99.99
2022-08-05T05:08:26.623Z,99.99
2022-08-05T05:09:17.167Z,99.99
2022-08-05T05:10:14.102Z,99.99
2022-08-05T05:11:15.217Z,99.90
2022-08-05T05:12:14.896Z,99.71
2022-08-05T05:13:14.229Z,99.46
2022-08-05T05:14:16.086Z,99.35
2022-08-05T05:15:13.335Z,99.35
2022-08-05T05:16:13.379Z,99.46
2022-08-05T05:17:13.407Z,99.46
2022-08-05T05:18:13.457Z,99.46
2022-08-05T05:19:27.305Z,99.46
2022-08-05T05:20:14.578Z,99.66
2022-08-05T05:21:13.611Z,99.26
2022-08-05T05:22:23.144Z,99.00
2022-08-05T05:23:19.482Z,99.00
2022-08-05T05:24:14.777Z,98.80
2022-08-05T05:25:16.995Z,98.80
2022-08-05T05:26:14.054Z,98.90
2022-08-05T05:27:14.437Z,99.10
2022-08-05T05:28:13.915Z,99.00
2022-08-05T05:29:14.717Z,99.10
2022-08-05T05:30:28.802Z,99.10
2022-08-05T05:31:15.034Z,99.10
2022-08-05T05:32:15.625Z,99.20
2022-08-05T05:33:17.307Z,99.30
2022-08-05T05:34:13.085Z,99.20
2022-08-05T05:35:13.142Z,99.40
2022-08-05T05:36:14.644Z,99.51
2022-08-05T05:37:13.244Z,99.60
2022-08-05T05:38:14.290Z,99.71
2022-08-05T05:39:13.307Z,99.71
2022-08-05T05:40:13.305Z,99.60
2022-08-05T05:41:13.322Z,99.51
2022-08-05T05:42:13.385Z,99.30
2022-08-05T05:43:13.395Z,99.30
2022-08-05T05:44:15.714Z,99.30
2022-08-05T05:45:14.489Z,99.40
2022-08-05T05:46:15.992Z,99.15
2022-08-05T05:47:21.950Z,99.05
2022-08-05T05:48:15.994Z,99.05
2022-08-05T05:49:13.605Z,98.75
2022-08-05T05:50:16.312Z,99.05
2022-08-05T05:51:15.587Z,99.46
2022-08-05T05:52:15.351Z,99.55
2022-08-05T05:53:21.588Z,99.46
2022-08-05T05:54:14.737Z,99.26
2022-08-05T05:55:14.159Z,98.95
2022-08-05T05:56:13.762Z,98.75
2022-08-05T05:57:13.873Z,98.65
2022-08-05T05:58:14.386Z,98.65
2022-08-05T05:59:12.865Z,98.75
2022-08-05T06:00:12.833Z,98.85
2022-08-05T06:01:15.355Z,98.95
2022-08-05T06:02:12.883Z,98.95
2022-08-05T06:03:40.295Z,98.85
2022-08-05T06:04:14.446Z,98.95
2022-08-05T06:05:16.392Z,98.95
2022-08-05T06:06:12.993Z,99.05
2022-08-05T06:07:13.981Z,99.05
2022-08-05T06:08:13.059Z,98.75
2022-08-05T06:09:17.540Z,98.65
2022-08-05T06:10:14.155Z,98.75
2022-08-05T06:11:14.104Z,98.95
2022-08-05T06:12:13.201Z,98.85
2022-08-05T06:13:14.239Z,98.65
2022-08-05T06:14:13.270Z,98.65
2022-08-05T06:15:23.629Z,98.65
2022-08-05T06:16:29.831Z,98.75
2022-08-05T06:17:22.494Z,98.75
2022-08-05T06:18:14.386Z,98.65
2022-08-05T06:19:14.432Z,98.65
2022-08-05T06:20:18.705Z,98.75
2022-08-05T06:21:20.683Z,98.85
2022-08-05T06:22:12.471Z,98.91
2022-08-05T06:23:12.504Z,98.80
2022-08-05T06:24:14.634Z,98.85
2022-08-05T06:25:24.672Z,98.85
2022-08-05T06:26:23.913Z,99.15
2022-08-05T06:28:09.347Z,99.55
2022-08-05T06:28:21.289Z,99.51
2022-08-05T06:29:25.286Z,99.61
2022-08-05T06:30:18.135Z,99.51
2022-08-05T06:31:17.874Z,99.41
2022-08-05T06:32:25.360Z,99.51
2022-08-05T06:33:19.025Z,99.31
2022-08-05T06:34:13.787Z,99.01
2022-08-05T06:35:15.626Z,98.71
2022-08-05T06:36:13.838Z,98.60
2022-08-05T06:37:12.878Z,98.60
2022-08-05T06:38:12.884Z,98.71
2022-08-05T06:39:12.969Z,98.40
2022-08-05T06:40:12.916Z,98.05
2022-08-05T06:41:12.983Z,97.45
2022-08-05T06:42:12.979Z,97.66
2022-08-05T06:43:58.092Z,97.55
2022-08-05T06:44:14.056Z,97.50
2022-08-05T06:45:20.754Z,97.50
2022-08-05T06:46:14.019Z,97.60
2022-08-05T06:48:11.778Z,97.70
2022-08-05T06:48:52.601Z,98.00
2022-08-05T06:49:14.000Z,98.10
2022-08-05T06:50:17.194Z,98.00
2022-08-05T06:51:23.740Z,97.85
2022-08-05T06:52:36.758Z,97.75
2022-08-05T06:53:22.655Z,98.05
2022-08-05T06:54:19.155Z,98.25
2022-08-05T06:55:14.147Z,98.56
2022-08-05T06:56:26.096Z,98.66
2022-08-05T06:57:57.652Z,98.56
2022-08-05T06:58:29.997Z,97.85
2022-08-05T06:59:13.158Z,97.85
2022-08-05T07:00:13.199Z,98.05
2022-08-05T07:01:13.345Z,98.25
2022-08-05T07:02:12.248Z,97.96
2022-08-05T07:03:12.298Z,97.85
2022-08-05T07:04:13.921Z,97.96
2022-08-05T07:05:14.466Z,97.96
2022-08-05T07:06:14.249Z,98.25
2022-08-05T07:07:11.908Z,98.46
2022-08-05T07:08:11.929Z,98.56
2022-08-05T07:09:11.958Z,98.25
2022-08-05T07:10:14.943Z,98.05
2022-08-05T07:11:15.282Z,97.85
2022-08-05T07:12:12.080Z,98.25
2022-08-05T07:13:12.115Z,98.56
2022-08-05T07:14:20.307Z,98.56
2022-08-05T07:15:13.180Z,98.46
2022-08-05T07:16:13.232Z,98.25
2022-08-05T07:18:01.318Z,98.36
2022-08-05T07:18:20.404Z,98.46
2022-08-05T07:19:16.028Z,98.36
2022-08-05T07:20:37.150Z,98.30
2022-08-05T07:21:13.393Z,98.40
2022-08-05T07:22:15.833Z,98.40
2022-08-05T07:23:25.973Z,98.50
2022-08-05T07:24:13.527Z,98.71
2022-08-05T07:25:24.050Z,98.80
2022-08-05T07:26:13.393Z,98.91
2022-08-05T07:27:11.663Z,99.01
2022-08-05T07:28:17.243Z,98.91
2022-08-05T07:29:12.735Z,99.21
2022-08-05T07:30:28.229Z,99.31
2022-08-05T07:31:12.813Z,99.21
2022-08-05T07:32:11.957Z,99.41
2022-08-05T07:33:16.216Z,99.31
2022-08-05T07:34:13.980Z,99.41
2022-08-05T07:35:55.961Z,99.51
2022-08-05T07:36:20.290Z,99.61
2022-08-05T07:37:14.017Z,99.61
2022-08-05T07:38:25.366Z,99.41
2022-08-05T07:39:24.826Z,99.11
2022-08-05T07:40:32.139Z,98.91
2022-08-05T07:42:09.118Z,99.01
2022-08-05T07:42:16.311Z,99.11
2022-08-05T07:43:14.513Z,98.91
2022-08-05T07:44:18.452Z,98.80
2022-08-05T07:45:12.307Z,98.60
2022-08-05T07:46:24.274Z,98.91
2022-08-05T07:47:13.452Z,99.01
2022-08-05T07:48:11.459Z,98.91
2022-08-05T07:49:12.045Z,98.91
2022-08-05T07:50:11.477Z,99.05
2022-08-05T07:51:23.587Z,99.05
2022-08-05T07:52:12.593Z,99.15
2022-08-05T07:53:13.332Z,99.26
2022-08-05T07:54:12.751Z,99.26
2022-08-05T07:55:44.324Z,99.26
2022-08-05T07:57:00.003Z,99.46
2022-08-05T07:57:17.788Z,99.31
2022-08-05T07:58:54.413Z,99.01
2022-08-05T07:59:12.904Z,98.85
2022-08-05T08:00:11.938Z,98.80
2022-08-05T08:01:12.388Z,98.60
2022-08-05T08:02:16.782Z,98.40
2022-08-05T08:03:14.084Z,98.30
2022-08-05T08:04:11.025Z,98.25
2022-08-05T08:05:11.360Z,98.30
2022-08-05T08:06:11.123Z,98.35
2022-08-05T08:07:11.131Z,98.20
2022-08-05T08:08:12.526Z,98.20
2022-08-05T08:09:11.212Z,98.20
2022-08-05T08:10:11.223Z,98.60
2022-08-05T08:11:16.072Z,98.30
2022-08-05T08:12:35.259Z,98.20
2022-08-05T08:13:12.103Z,98.20
2022-08-05T08:14:11.162Z,98.20
2022-08-05T08:15:15.699Z,98.15
2022-08-05T08:16:49.782Z,98.05
2022-08-05T08:17:15.848Z,98.30
2022-08-05T08:18:14.138Z,98.00
2022-08-05T08:20:10.788Z,98.20
2022-08-05T08:20:43.307Z,98.10
2022-08-05T08:21:15.962Z,98.10
2022-08-05T08:22:12.303Z,98.30
2022-08-05T08:24:00.457Z,98.10
2022-08-05T08:24:14.130Z,97.70
2022-08-05T08:25:16.339Z,97.60
2022-08-05T08:26:12.488Z,97.80
2022-08-05T08:27:11.536Z,97.50
2022-08-05T08:28:18.876Z,97.09
2022-08-05T08:29:29.304Z,97.09
2022-08-05T08:30:29.382Z,97.00
2022-08-05T08:31:14.887Z,97.09
2022-08-05T08:32:11.695Z,97.30
2022-08-05T08:33:13.775Z,97.20
2022-08-05T08:34:10.797Z,97.30
2022-08-05T08:35:13.654Z,97.20
2022-08-05T08:36:39.284Z,97.50
2022-08-05T08:37:11.945Z,97.09
2022-08-05T08:38:16.531Z,96.80
2022-08-05T08:39:15.360Z,96.89
2022-08-05T08:40:12.101Z,96.69
2022-08-05T08:41:14.124Z,96.80
2022-08-05T08:42:32.538Z,96.80
2022-08-05T08:45:16.101Z,96.50
2022-08-05T08:45:23.786Z,96.09
2022-08-05T08:45:24.777Z,96.39
2022-08-05T08:46:15.630Z,95.95
2022-08-05T08:47:22.209Z,96.35
2022-08-05T08:48:36.104Z,96.25
2022-08-05T08:50:14.181Z,95.84
2022-08-05T08:50:32.016Z,95.95
2022-08-05T08:51:54.572Z,95.84
2022-08-05T08:52:13.832Z,95.84
2022-08-05T08:53:12.180Z,96.10
2022-08-05T08:54:11.269Z,96.00
2022-08-05T08:55:13.402Z,95.90
2022-08-05T08:56:14.459Z,95.60
2022-08-05T08:57:11.420Z,95.20
2022-08-05T08:58:13.219Z,95.00
2022-08-05T08:59:19.404Z,94.13
2022-08-05T09:00:11.571Z,94.13
2022-08-05T09:01:10.971Z,94.13
2022-08-05T09:02:11.683Z,93.93
2022-08-05T09:03:10.722Z,94.44
2022-08-05T09:04:10.833Z,94.54
2022-08-05T09:05:17.569Z,94.59
2022-08-05T09:06:15.796Z,94.49
2022-08-05T09:07:19.681Z,94.39
2022-08-05T09:08:11.982Z,93.99
2022-08-05T09:09:11.134Z,93.93
2022-08-05T09:10:11.096Z,93.84
2022-08-05T09:11:13.748Z,94.20
2022-08-05T09:12:20.576Z,93.99
2022-08-05T09:13:11.171Z,93.79
2022-08-05T09:14:58.822Z,93.85
2022-08-05T09:15:16.473Z,93.24
2022-08-05T09:16:14.657Z,93.65
2022-08-05T09:17:40.098Z,93.74
2022-08-05T09:18:13.317Z,93.85
2022-08-05T09:19:10.493Z,93.95
2022-08-05T09:20:10.552Z,94.05
2022-08-05T09:21:11.668Z,93.15
2022-08-05T09:22:22.172Z,93.55
2022-08-05T09:23:19.176Z,93.04
2022-08-05T09:24:11.795Z,93.74
2022-08-05T09:25:23.692Z,93.50
2022-08-05T09:26:15.952Z,93.60
2022-08-05T09:27:11.127Z,93.00
2022-08-05T09:28:11.039Z,92.60
2022-08-05T09:29:10.065Z,92.30
2022-08-05T09:30:10.126Z,91.55
2022-08-05T09:32:38.593Z,90.95
2022-08-05T09:32:40.771Z,92.55
2022-08-05T09:33:15.272Z,92.25
2022-08-05T09:34:10.443Z,91.96
2022-08-05T09:35:12.305Z,91.15
2022-08-05T09:36:11.687Z,91.65
2022-08-05T09:37:15.208Z,91.25
2022-08-05T09:38:12.959Z,91.85
2022-08-05T09:39:18.083Z,91.05
2022-08-05T09:40:11.624Z,91.20
2022-08-05T09:41:10.568Z,90.61
2022-08-05T09:42:23.568Z,89.86
2022-08-05T09:43:11.677Z,88.30
2022-08-05T09:44:11.230Z,90.20
2022-08-05T09:46:04.904Z,90.91
2022-08-05T09:46:11.863Z,90.11
2022-08-05T09:47:12.793Z,90.00
2022-08-05T09:48:09.883Z,90.50
2022-08-05T09:49:19.451Z,91.81
2022-08-05T09:50:10.964Z,91.20
2022-08-05T09:51:14.871Z,90.11
2022-08-05T09:52:11.212Z,90.11
2022-08-05T09:53:17.162Z,90.45
2022-08-05T09:54:11.188Z,91.15
2022-08-05T09:55:57.053Z,91.45
2022-08-05T09:56:13.385Z,90.85
2022-08-05T09:57:20.571Z,90.05
2022-08-05T09:58:11.381Z,89.75
2022-08-05T09:59:17.038Z,90.35
2022-08-05T10:00:10.497Z,90.55
2022-08-05T10:01:14.586Z,90.35
2022-08-05T10:02:10.617Z,90.89
2022-08-05T10:03:09.642Z,90.64
2022-08-05T10:04:10.388Z,90.84
2022-08-05T10:05:09.703Z,91.34
2022-08-05T10:06:14.742Z,91.84
2022-08-05T10:07:20.261Z,91.44
2022-08-05T10:08:36.552Z,91.54
2022-08-05T10:09:27.522Z,91.64
2022-08-05T10:10:15.031Z,91.34
2022-08-05T10:11:10.077Z,91.74
2022-08-05T10:12:18.561Z,91.74
2022-08-05T10:13:11.216Z,91.44
2022-08-05T10:14:10.267Z,91.64
2022-08-05T10:15:10.307Z,91.84
2022-08-05T10:16:09.304Z,91.38
2022-08-05T10:17:09.381Z,91.08
2022-08-05T10:18:10.406Z,91.18
2022-08-05T10:19:10.108Z,91.52
2022-08-05T10:20:11.037Z,91.93
2022-08-05T10:21:15.773Z,92.27
2022-08-05T10:22:15.711Z,92.77
2022-08-05T10:23:34.209Z,92.57
2022-08-05T10:24:11.255Z,92.37
2022-08-05T10:25:09.757Z,92.88
2022-08-05T10:26:14.478Z,93.08
2022-08-05T10:27:10.906Z,93.28
2022-08-05T10:28:17.079Z,93.28
2022-08-05T10:29:11.005Z,93.28
2022-08-05T10:31:20.651Z,92.68
2022-08-05T10:32:54.286Z,93.42
2022-08-05T10:32:54.346Z,93.18
2022-08-05T10:33:14.854Z,93.52
2022-08-05T10:34:10.274Z,93.52
2022-08-05T10:35:09.379Z,93.58
2022-08-05T10:36:09.357Z,93.78
2022-08-05T10:37:09.387Z,93.68
2022-08-05T10:38:11.792Z,93.48
2022-08-05T10:39:11.749Z,93.38
2022-08-05T10:40:18.056Z,93.42
2022-08-05T10:41:12.421Z,93.93
2022-08-05T10:42:11.439Z,93.93
2022-08-05T10:43:12.416Z,94.13
2022-08-05T10:44:09.770Z,94.43
2022-08-05T10:45:23.910Z,95.18
2022-08-05T10:46:10.830Z,95.28
2022-08-05T10:47:10.279Z,94.98
2022-08-05T10:48:30.064Z,94.57
2022-08-05T10:49:16.506Z,94.87
2022-08-05T10:50:20.309Z,94.37
2022-08-05T10:51:21.697Z,94.02
2022-08-05T10:52:10.689Z,93.73
2022-08-05T10:53:09.345Z,93.42
2022-08-05T10:54:28.369Z,93.62
2022-08-05T10:55:10.448Z,94.13
2022-08-05T10:56:21.301Z,93.62
2022-08-05T10:57:10.562Z,93.22
2022-08-05T10:58:09.633Z,93.37
2022-08-05T11:00:01.049Z,93.57
2022-08-05T11:00:13.265Z,93.46
2022-08-05T11:01:11.490Z,93.66
2022-08-05T11:02:14.700Z,93.97
2022-08-05T11:03:26.006Z,94.07
2022-08-05T11:04:09.999Z,94.27
2022-08-05T11:05:09.308Z,94.42
2022-08-05T11:06:15.266Z,94.62
2022-08-05T11:07:10.242Z,94.52
2022-08-05T11:08:36.691Z,94.62
2022-08-05T11:09:10.399Z,95.02
2022-08-05T11:10:10.230Z,95.32
2022-08-05T11:11:16.357Z,94.96
2022-08-05T11:12:10.507Z,95.47
2022-08-05T11:13:09.549Z,96.01
2022-08-05T11:14:08.666Z,96.32
2022-08-05T11:15:19.419Z,96.52
2022-08-05T11:16:09.653Z,96.42
2022-08-05T11:18:00.020Z,96.52
2022-08-05T11:18:11.866Z,96.52
2022-08-05T11:20:10.582Z,96.42
2022-08-05T11:20:18.177Z,96.52
2022-08-05T11:21:12.041Z,96.42
2022-08-05T11:22:09.045Z,96.32
2022-08-05T11:23:10.553Z,96.52
2022-08-05T11:24:30.225Z,96.42
2022-08-05T11:25:16.490Z,96.42
2022-08-05T11:26:10.331Z,96.56
2022-08-05T11:27:08.388Z,96.77
2022-08-05T11:28:08.430Z,96.83
2022-08-05T11:29:14.008Z,97.03
2022-08-05T11:30:10.453Z,96.77
2022-08-05T11:31:08.634Z,96.56
2022-08-05T11:32:08.717Z,96.56
2022-08-05T11:33:21.010Z,96.87
2022-08-05T11:34:09.823Z,97.07
2022-08-05T11:35:09.928Z,97.17
2022-08-05T11:36:09.973Z,97.38
2022-08-05T11:38:26.587Z,97.62
2022-08-05T11:38:28.890Z,97.82
2022-08-05T11:39:10.309Z,97.82
2022-08-05T11:40:09.315Z,98.02
2022-08-05T11:41:34.611Z,98.13
2022-08-05T11:42:10.449Z,98.22
2022-08-05T11:43:09.473Z,98.53
2022-08-05T11:44:08.689Z,98.63
2022-08-05T11:45:23.338Z,98.53
2022-08-05T11:46:16.137Z,98.53
2022-08-05T11:47:15.218Z,98.58
2022-08-05T11:48:11.565Z,98.27
2022-08-05T11:49:10.046Z,98.37
2022-08-05T11:50:08.935Z,98.37
2022-08-05T11:51:09.008Z,98.27
2022-08-05T11:52:11.883Z,98.27
2022-08-05T11:53:10.000Z,98.58
2022-08-05T11:54:10.281Z,98.58
2022-08-05T11:55:10.579Z,98.47
2022-08-05T11:56:08.371Z,98.27
2022-08-05T11:57:25.679Z,97.97
2022-08-05T11:58:12.024Z,98.02
2022-08-05T11:59:13.631Z,97.42
2022-08-05T12:00:08.739Z,97.22
2022-08-05T12:01:10.524Z,96.71
2022-08-05T12:02:15.972Z,96.11
2022-08-05T12:03:09.001Z,95.81
2022-08-05T12:04:09.071Z,95.61
2022-08-05T12:05:18.532Z,95.70
2022-08-05T12:06:10.228Z,95.81
2022-08-05T12:07:09.208Z,95.36
2022-08-05T12:08:11.551Z,94.95
2022-08-05T12:09:09.426Z,94.45
2022-08-05T12:10:11.486Z,93.85
2022-08-05T12:11:08.515Z,93.85
2022-08-05T12:12:08.567Z,93.85
2022-08-05T12:13:15.782Z,93.95
2022-08-05T12:14:10.364Z,93.40
2022-08-05T12:15:08.727Z,93.10
2022-08-05T12:16:14.406Z,92.79
2022-08-05T12:18:00.715Z,91.94
2022-08-05T12:18:12.187Z,91.44
2022-08-05T12:19:08.991Z,90.84
2022-08-05T12:20:27.718Z,91.14
2022-08-05T12:21:09.046Z,90.44
2022-08-05T12:22:09.692Z,90.09
2022-08-05T12:23:09.204Z,90.19
2022-08-05T12:24:10.206Z,90.39
2022-08-05T12:25:09.407Z,89.84
2022-08-05T12:26:09.407Z,88.94
2022-08-05T12:27:09.461Z,88.03
2022-08-05T12:28:09.511Z,87.99
2022-08-05T12:29:16.024Z,86.79
2022-08-05T12:30:15.430Z,85.88
2022-08-05T12:31:08.678Z,86.18
2022-08-05T12:32:09.606Z,86.54
2022-08-05T12:33:27.297Z,84.43
2022-08-05T12:34:09.479Z,83.49
2022-08-05T12:35:09.878Z,81.18
2022-08-05T12:36:10.028Z,82.04
2022-08-05T12:37:07.933Z,81.80
2022-08-05T12:38:10.956Z,81.10
2022-08-05T12:39:09.058Z,81.06
2022-08-05T12:40:11.074Z,80.76
2022-08-05T12:41:13.267Z,80.22
2022-08-05T12:42:08.493Z,79.12
2022-08-05T12:43:08.162Z,78.81
2022-08-05T12:44:11.416Z,78.52
2022-08-05T12:45:09.496Z,78.02
2022-08-05T12:46:08.272Z,77.28
2022-08-05T12:47:12.702Z,77.37
2022-08-05T12:48:26.850Z,76.51
2022-08-05T12:49:12.905Z,76.31
2022-08-05T12:50:10.477Z,75.91
2022-08-05T12:51:07.475Z,77.41
2022-08-05T12:52:12.037Z,77.15